createdAt,value
2018-08-10T00:01:15.075Z,27.80
2018-08-10T00:03:43.716Z,27.80
2018-08-10T00:06:12.433Z,27.80
2018-08-10T00:08:41.341Z,27.80
2018-08-10T00:11:09.969Z,27.80
2018-08-10T00:13:38.742Z,27.80
2018-08-10T00:16:07.514Z,27.80
2018-08-10T00:18:36.304Z,27.70
2018-08-10T00:21:05.192Z,27.70
2018-08-10T00:23:33.911Z,27.70
2018-08-10T00:26:02.252Z,27.70
2018-08-10T00:28:31.026Z,27.70
2018-08-10T00:30:59.460Z,27.60
2018-08-10T00:33:28.305Z,27.60
2018-08-10T00:35:57.121Z,27.50
2018-08-10T00:38:25.501Z,27.50
2018-08-10T00:40:54.260Z,27.50
2018-08-10T00:43:22.712Z,27.50
2018-08-10T00:45:51.415Z,27.50
2018-08-10T00:48:20.316Z,27.50
2018-08-10T00:50:48.995Z,27.50
2018-08-10T00:53:17.837Z,27.40
2018-08-10T00:55:46.388Z,27.50
2018-08-10T00:58:14.849Z,27.50
2018-08-10T01:00:43.300Z,27.50
2018-08-10T01:03:12.090Z,27.50
2018-08-10T01:05:40.769Z,27.50
2018-08-10T01:08:09.477Z,27.50
2018-08-10T01:10:37.939Z,27.40
2018-08-10T01:13:06.777Z,27.40
2018-08-10T01:15:35.436Z,27.40
2018-08-10T01:18:04.428Z,27.40
2018-08-10T01:20:33.971Z,27.40
2018-08-10T01:23:07.322Z,27.40
2018-08-10T01:25:35.913Z,27.40
2018-08-10T01:28:05.227Z,27.30
2018-08-10T01:30:34.805Z,27.30
2018-08-10T01:33:39.242Z,27.30
2018-08-10T01:36:08.080Z,27.30
2018-08-10T01:38:36.627Z,27.30
2018-08-10T01:41:05.417Z,27.20
2018-08-10T01:43:34.079Z,27.20
2018-08-10T01:46:02.794Z,27.20
2018-08-10T01:48:31.725Z,27.20
2018-08-10T01:51:00.075Z,27.20
2018-08-10T01:53:28.474Z,27.20
2018-08-10T01:55:57.237Z,27.10
2018-08-10T01:58:25.679Z,27.10
2018-08-10T02:00:54.116Z,27.10
2018-08-10T02:03:22.604Z,27.10
2018-08-10T02:05:51.448Z,27.10
2018-08-10T02:08:19.812Z,27.00
2018-08-10T02:10:48.292Z,27.00
2018-08-10T02:13:16.573Z,27.00
2018-08-10T02:15:44.998Z,27.00
2018-08-10T02:18:13.512Z,26.90
2018-08-10T02:20:41.983Z,26.90
2018-08-10T02:23:10.851Z,26.90
2018-08-10T02:25:39.371Z,26.90
2018-08-10T02:28:07.839Z,26.90
2018-08-10T02:30:36.303Z,26.90
2018-08-10T02:33:05.020Z,26.90
2018-08-10T02:35:33.675Z,26.90
2018-08-10T02:38:02.482Z,26.90
2018-08-10T02:40:31.249Z,26.90
2018-08-10T02:42:59.967Z,26.90
2018-08-10T02:45:28.870Z,26.80
2018-08-10T02:47:57.593Z,26.80
2018-08-10T02:50:26.453Z,26.70
2018-08-10T02:52:54.840Z,26.70
2018-08-10T02:55:23.826Z,26.70
2018-08-10T02:57:52.485Z,26.70
2018-08-10T03:00:21.290Z,26.70
2018-08-10T03:02:49.876Z,26.70
2018-08-10T03:05:18.359Z,26.70
2018-08-10T03:07:46.688Z,26.70
2018-08-10T03:10:15.679Z,26.70
2018-08-10T03:12:44.508Z,26.60
2018-08-10T03:15:16.362Z,26.60
2018-08-10T03:17:45.465Z,26.60
2018-08-10T03:20:13.993Z,26.60
2018-08-10T03:22:42.760Z,26.60
2018-08-10T03:25:12.632Z,26.60
2018-08-10T03:27:41.108Z,26.50
2018-08-10T03:30:10.906Z,26.50
2018-08-10T03:32:39.956Z,26.60
2018-08-10T03:35:08.628Z,26.60
2018-08-10T03:37:37.794Z,26.60
2018-08-10T03:40:08.247Z,26.60
2018-08-10T03:42:36.818Z,26.50
2018-08-10T03:45:05.839Z,26.50
2018-08-10T03:47:34.524Z,26.50
2018-08-10T03:50:03.310Z,26.50
2018-08-10T03:52:32.184Z,26.50
2018-08-10T03:55:00.737Z,26.50
2018-08-10T03:57:29.172Z,26.50
2018-08-10T03:59:57.616Z,26.40
2018-08-10T04:02:26.086Z,26.40
2018-08-10T04:04:54.765Z,26.30
2018-08-10T04:07:23.436Z,26.40
2018-08-10T04:09:51.873Z,26.40
2018-08-10T04:12:20.418Z,26.40
2018-08-10T04:14:48.820Z,26.40
2018-08-10T04:17:22.011Z,26.40
2018-08-10T04:19:51.377Z,26.40
2018-08-10T04:22:20.095Z,26.30
2018-08-10T04:24:48.692Z,26.30
2018-08-10T04:27:17.204Z,26.30
2018-08-10T04:29:47.216Z,26.30
2018-08-10T04:32:15.613Z,26.30
2018-08-10T04:34:45.340Z,26.30
2018-08-10T04:37:13.691Z,26.20
2018-08-10T04:39:42.462Z,26.20
2018-08-10T04:42:11.420Z,26.20
2018-08-10T04:44:39.991Z,26.20
2018-08-10T04:47:12.076Z,26.20
2018-08-10T04:49:40.536Z,26.20
2018-08-10T04:52:08.996Z,26.20
2018-08-10T04:54:37.620Z,26.20
2018-08-10T04:57:06.025Z,26.20
2018-08-10T04:59:34.855Z,26.20
2018-08-10T05:02:03.836Z,26.20
2018-08-10T05:04:32.585Z,26.20
2018-08-10T05:07:00.969Z,26.20
2018-08-10T05:09:29.426Z,26.20
2018-08-10T05:11:57.708Z,26.20
2018-08-10T05:14:41.077Z,26.20
2018-08-10T05:17:10.233Z,26.20
2018-08-10T05:19:38.705Z,26.20
2018-08-10T05:22:07.223Z,26.20
2018-08-10T05:24:35.989Z,26.20
2018-08-10T05:27:04.708Z,26.20
2018-08-10T05:29:33.393Z,26.20
2018-08-10T05:32:01.892Z,26.30
2018-08-10T05:34:30.280Z,26.30
2018-08-10T05:36:58.811Z,26.30
2018-08-10T05:39:27.632Z,26.20
2018-08-10T05:41:56.082Z,26.30
2018-08-10T05:44:24.846Z,26.30
2018-08-10T05:46:53.605Z,26.30
2018-08-10T05:49:22.054Z,26.30
2018-08-10T05:51:50.668Z,26.30
2018-08-10T05:54:19.478Z,26.30
2018-08-10T05:56:48.187Z,26.30
2018-08-10T05:59:16.556Z,26.30
2018-08-10T06:01:45.313Z,26.30
2018-08-10T06:04:13.717Z,26.30
2018-08-10T06:06:42.304Z,26.30
2018-08-10T06:09:13.008Z,26.30
2018-08-10T06:11:42.251Z,26.30
2018-08-10T06:14:11.320Z,26.30
2018-08-10T06:16:39.826Z,26.30
2018-08-10T06:19:08.592Z,26.30
2018-08-10T06:21:37.373Z,26.30
2018-08-10T06:24:05.992Z,26.30
2018-08-10T06:26:34.868Z,26.30
2018-08-10T06:29:03.605Z,26.30
2018-08-10T06:31:32.056Z,26.30
2018-08-10T06:34:00.971Z,26.40
2018-08-10T06:36:29.375Z,26.40
2018-08-10T06:38:58.142Z,26.40
2018-08-10T06:41:26.811Z,26.40
2018-08-10T06:43:55.344Z,26.40
2018-08-10T06:46:23.831Z,26.50
2018-08-10T06:48:52.413Z,26.50
2018-08-10T06:51:21.194Z,26.50
2018-08-10T06:53:49.759Z,26.50
2018-08-10T06:56:18.230Z,26.60
2018-08-10T06:58:46.811Z,26.60
2018-08-10T07:01:15.599Z,26.60
2018-08-10T07:03:44.340Z,26.70
2018-08-10T07:06:12.692Z,26.80
2018-08-10T07:08:41.404Z,26.90
2018-08-10T07:11:09.868Z,26.90
2018-08-10T07:13:38.713Z,26.90
2018-08-10T07:16:07.379Z,27.00
2018-08-10T07:18:35.799Z,27.00
2018-08-10T07:21:04.364Z,27.00
2018-08-10T07:23:33.084Z,27.00
2018-08-10T07:26:01.432Z,27.10
2018-08-10T07:28:29.844Z,27.10
2018-08-10T07:30:58.388Z,27.10
2018-08-10T07:33:27.200Z,27.10
2018-08-10T07:35:55.504Z,27.10
2018-08-10T07:38:23.897Z,27.10
2018-08-10T07:40:52.347Z,27.10
2018-08-10T07:43:20.752Z,27.10
2018-08-10T07:45:49.098Z,27.10
2018-08-10T07:48:17.603Z,27.20
2018-08-10T07:50:46.600Z,27.20
2018-08-10T07:53:15.324Z,27.20
2018-08-10T07:55:43.988Z,27.20
2018-08-10T07:58:12.731Z,27.10
2018-08-10T08:00:41.762Z,27.10
2018-08-10T08:03:10.435Z,27.10
2018-08-10T08:05:38.800Z,27.20
2018-08-10T08:08:07.627Z,27.20
2018-08-10T08:10:36.185Z,27.20
2018-08-10T08:13:04.798Z,27.30
2018-08-10T08:15:33.496Z,27.30
2018-08-10T08:18:02.495Z,27.40
2018-08-10T08:20:31.237Z,27.40
2018-08-10T08:23:01.448Z,27.50
2018-08-10T08:25:30.169Z,27.50
2018-08-10T08:27:59.184Z,27.50
2018-08-10T08:30:27.569Z,27.50
2018-08-10T08:32:56.657Z,27.50
2018-08-10T08:35:25.530Z,27.60
2018-08-10T08:37:58.960Z,27.60
2018-08-10T08:40:27.858Z,27.70
2018-08-10T08:42:56.336Z,27.70
2018-08-10T08:46:03.142Z,27.80
2018-08-10T08:48:33.175Z,27.80
2018-08-10T08:51:03.296Z,27.90
2018-08-10T08:53:32.122Z,28.00
2018-08-10T08:56:02.192Z,28.00
2018-08-10T08:58:31.182Z,28.10
2018-08-10T09:01:00.160Z,28.10
2018-08-10T09:05:10.125Z,28.10
2018-08-10T09:07:39.129Z,28.10
2018-08-10T09:15:26.815Z,28.20
2018-08-10T09:17:55.688Z,28.30
2018-08-10T09:20:24.159Z,28.40
2018-08-10T09:22:52.563Z,28.40
2018-08-10T09:25:21.333Z,28.50
2018-08-10T09:27:49.872Z,28.60
2018-08-10T09:30:18.845Z,28.60
2018-08-10T09:32:47.425Z,28.60
2018-08-10T09:35:16.295Z,28.70
2018-08-10T09:37:44.771Z,28.70
2018-08-10T09:40:15.456Z,28.70
2018-08-10T09:42:44.506Z,28.80
2018-08-10T09:45:13.842Z,28.90
2018-08-10T09:47:42.988Z,29.00
2018-08-10T09:50:13.143Z,29.10
2018-08-10T09:52:58.430Z,29.20
2018-08-10T09:55:29.757Z,29.20
2018-08-10T09:58:00.688Z,29.30
2018-08-10T10:00:34.466Z,29.20
2018-08-10T10:03:08.683Z,29.30
2018-08-10T10:05:37.517Z,29.30
2018-08-10T10:08:06.307Z,29.50
2018-08-10T10:10:34.812Z,29.50
2018-08-10T10:13:03.519Z,29.50
2018-08-10T10:15:42.815Z,29.50
2018-08-10T10:18:12.580Z,29.60
2018-08-10T10:20:41.433Z,29.60
2018-08-10T10:23:10.304Z,29.70
2018-08-10T10:25:39.112Z,29.70
2018-08-10T10:28:07.900Z,29.70
2018-08-10T10:30:36.795Z,29.80
2018-08-10T10:33:05.685Z,29.80
2018-08-10T10:35:34.322Z,29.90
2018-08-10T10:38:03.040Z,29.90
2018-08-10T10:40:32.362Z,29.90
2018-08-10T10:43:01.034Z,29.90
2018-08-10T10:45:29.708Z,29.90
2018-08-10T10:47:58.148Z,29.90
2018-08-10T10:50:26.602Z,30.00
2018-08-10T10:52:55.136Z,30.00
2018-08-10T10:55:23.696Z,30.10
2018-08-10T10:57:52.059Z,30.10
2018-08-10T11:00:21.132Z,30.10
2018-08-10T11:02:50.064Z,30.10
2018-08-10T11:05:18.863Z,30.20
2018-08-10T11:07:47.230Z,30.20
2018-08-10T11:10:16.881Z,30.30
2018-08-10T11:12:45.237Z,30.40
2018-08-10T11:15:41.781Z,30.40
2018-08-10T11:18:10.681Z,30.50
2018-08-10T11:20:39.208Z,30.60
2018-08-10T11:23:07.891Z,30.70
2018-08-10T11:25:36.691Z,30.70
2018-08-10T11:28:05.012Z,30.80
2018-08-10T11:30:34.359Z,30.90
2018-08-10T11:33:03.084Z,30.90
2018-08-10T11:35:31.548Z,31.00
2018-08-10T11:37:59.924Z,31.00
2018-08-10T11:40:28.589Z,31.10
2018-08-10T11:42:57.451Z,31.10
2018-08-10T11:45:25.923Z,31.30
2018-08-10T11:47:54.568Z,31.30
2018-08-10T11:50:23.052Z,31.40
2018-08-10T11:52:51.488Z,31.50
2018-08-10T11:55:20.156Z,31.50
2018-08-10T11:57:48.535Z,31.60
2018-08-10T12:00:17.439Z,31.60
2018-08-10T12:02:45.851Z,31.70
2018-08-10T12:05:14.466Z,31.70
2018-08-10T12:07:42.979Z,31.80
2018-08-10T12:10:11.678Z,31.90
2018-08-10T12:12:40.217Z,31.90
2018-08-10T12:15:54.940Z,32.00
2018-08-10T12:18:23.389Z,32.10
2018-08-10T12:20:52.175Z,32.10
2018-08-10T12:23:20.986Z,32.30
2018-08-10T12:25:49.684Z,32.30
2018-08-10T12:28:18.449Z,32.30
2018-08-10T12:30:47.358Z,32.40
2018-08-10T12:33:15.839Z,32.40
2018-08-10T12:35:44.792Z,32.50
2018-08-10T12:38:13.503Z,32.50
2018-08-10T12:40:42.202Z,32.60
2018-08-10T12:43:11.029Z,32.70
2018-08-10T12:45:39.699Z,32.70
2018-08-10T12:48:08.274Z,32.70
2018-08-10T12:50:37.181Z,32.70
2018-08-10T12:53:06.048Z,32.80
2018-08-10T12:55:34.957Z,32.80
2018-08-10T12:58:03.763Z,32.90
2018-08-10T13:00:32.637Z,32.90
2018-08-10T13:03:01.525Z,33.00
2018-08-10T13:05:29.934Z,33.00
2018-08-10T13:07:58.229Z,33.10
2018-08-10T13:10:27.289Z,33.00
2018-08-10T13:12:56.054Z,33.00
2018-08-10T13:15:52.509Z,32.90
2018-08-10T13:18:21.334Z,32.90
2018-08-10T13:20:49.777Z,33.00
2018-08-10T13:23:18.280Z,33.00
2018-08-10T13:25:46.792Z,33.00
2018-08-10T13:28:15.286Z,33.00
2018-08-10T13:30:43.788Z,32.90
2018-08-10T13:33:12.260Z,32.90
2018-08-10T13:35:41.207Z,33.00
2018-08-10T13:38:09.952Z,32.90
2018-08-10T13:40:38.770Z,32.90
2018-08-10T13:43:07.499Z,32.90
2018-08-10T13:45:36.372Z,32.80
2018-08-10T13:48:05.171Z,32.80
2018-08-10T13:50:34.219Z,32.90
2018-08-10T13:53:02.762Z,32.80
2018-08-10T13:55:31.507Z,32.80
2018-08-10T13:58:00.280Z,32.80
2018-08-10T14:00:28.884Z,32.80
2018-08-10T14:02:57.497Z,32.70
2018-08-10T14:05:25.977Z,32.80
2018-08-10T14:07:54.692Z,32.80
2018-08-10T14:10:23.361Z,32.80
2018-08-10T14:12:52.253Z,32.70
2018-08-10T14:16:05.933Z,32.70
2018-08-10T14:18:34.316Z,32.70
2018-08-10T14:21:03.029Z,32.70
2018-08-10T14:23:31.867Z,32.70
2018-08-10T14:26:00.527Z,32.70
2018-08-10T14:28:29.595Z,32.80
2018-08-10T14:30:57.904Z,32.70
2018-08-10T14:33:26.377Z,32.70
2018-08-10T14:35:54.987Z,32.70
2018-08-10T14:38:23.660Z,32.70
2018-08-10T14:40:52.065Z,32.60
2018-08-10T14:43:20.861Z,32.70
2018-08-10T14:45:49.260Z,32.70
2018-08-10T14:48:17.599Z,32.60
2018-08-10T14:50:46.064Z,32.60
2018-08-10T14:53:14.495Z,32.60
2018-08-10T14:55:43.347Z,32.50
2018-08-10T14:58:11.840Z,32.50
2018-08-10T15:00:40.196Z,32.50
2018-08-10T15:03:09.079Z,32.50
2018-08-10T15:05:37.830Z,32.40
2018-08-10T15:08:06.540Z,32.40
2018-08-10T15:10:35.043Z,32.40
2018-08-10T15:13:03.537Z,32.40
2018-08-10T15:19:07.984Z,32.40
2018-08-10T15:21:36.903Z,32.30
2018-08-10T15:24:05.439Z,32.30
2018-08-10T15:26:33.983Z,32.30
2018-08-10T15:29:02.530Z,32.30
2018-08-10T15:31:31.036Z,32.20
2018-08-10T15:33:59.475Z,32.10
2018-08-10T15:36:28.332Z,32.10
2018-08-10T15:38:56.879Z,32.10
2018-08-10T15:41:25.445Z,32.10
2018-08-10T15:43:53.897Z,32.00
2018-08-10T15:46:22.534Z,32.00
2018-08-10T15:48:51.364Z,32.00
2018-08-10T15:51:20.150Z,32.00
2018-08-10T15:53:48.978Z,32.00
2018-08-10T15:56:17.484Z,31.90
2018-08-10T15:58:45.920Z,32.00
2018-08-10T16:01:14.292Z,31.90
2018-08-10T16:03:42.837Z,31.90
2018-08-10T16:06:11.404Z,31.80
2018-08-10T16:08:40.240Z,31.90
2018-08-10T16:11:08.603Z,31.90
2018-08-10T16:13:37.531Z,31.80
2018-08-10T16:16:52.356Z,31.80
2018-08-10T16:19:21.211Z,31.80
2018-08-10T16:21:49.981Z,31.80
2018-08-10T16:24:18.826Z,31.80
2018-08-10T16:26:47.538Z,31.80
2018-08-10T16:29:16.360Z,31.80
2018-08-10T16:31:44.835Z,31.80
2018-08-10T16:34:13.608Z,31.70
2018-08-10T16:36:42.064Z,31.70
2018-08-10T16:39:11.726Z,31.60
2018-08-10T16:41:40.720Z,31.60
2018-08-10T16:44:09.435Z,31.70
2018-08-10T16:46:38.324Z,31.50
2018-08-10T16:49:07.172Z,31.60
2018-08-10T16:51:35.927Z,31.50
2018-08-10T16:54:04.464Z,31.50
2018-08-10T16:56:32.811Z,31.50
2018-08-10T16:59:01.198Z,31.50
2018-08-10T17:01:29.812Z,31.50
2018-08-10T17:03:58.207Z,31.50
2018-08-10T17:06:26.627Z,31.40
2018-08-10T17:08:55.112Z,31.40
2018-08-10T17:11:28.058Z,31.30
2018-08-10T17:13:56.576Z,31.30
2018-08-10T17:16:36.224Z,31.30
2018-08-10T17:19:04.745Z,31.30
2018-08-10T17:21:33.279Z,31.30
2018-08-10T17:24:02.249Z,31.30
2018-08-10T17:26:30.945Z,31.30
2018-08-10T17:28:59.514Z,31.20
2018-08-10T17:31:28.232Z,31.20
2018-08-10T17:33:56.793Z,31.20
2018-08-10T17:36:25.595Z,31.10
2018-08-10T17:38:54.122Z,31.10
2018-08-10T17:41:22.674Z,31.10
2018-08-10T17:43:51.241Z,31.10
2018-08-10T17:46:19.620Z,31.10
2018-08-10T17:48:47.985Z,31.10
2018-08-10T17:51:16.772Z,31.00
2018-08-10T17:53:45.225Z,31.10
2018-08-10T17:56:14.091Z,31.00
2018-08-10T17:58:42.635Z,30.90
2018-08-10T18:01:11.147Z,31.00
2018-08-10T18:03:39.633Z,30.90
2018-08-10T18:06:08.080Z,30.90
2018-08-10T18:08:36.642Z,30.80
2018-08-10T18:11:05.293Z,30.90
2018-08-10T18:13:33.988Z,30.80
2018-08-10T18:19:35.377Z,30.70
2018-08-10T18:22:03.888Z,30.70
2018-08-10T18:24:32.332Z,30.70
2018-08-10T18:27:01.114Z,30.70
2018-08-10T18:29:29.868Z,30.60
2018-08-10T18:31:58.479Z,30.60
2018-08-10T18:34:27.255Z,30.60
2018-08-10T18:36:55.852Z,30.60
2018-08-10T18:39:24.728Z,30.60
2018-08-10T18:41:54.499Z,30.50
2018-08-10T18:44:24.419Z,30.50
2018-08-10T18:46:53.487Z,30.50
2018-08-10T18:49:22.723Z,30.50
2018-08-10T18:51:51.587Z,30.40
2018-08-10T18:54:20.566Z,30.40
2018-08-10T18:56:49.360Z,30.40
2018-08-10T18:59:18.259Z,30.40
2018-08-10T19:01:47.241Z,30.30
2018-08-10T19:04:16.340Z,30.30
2018-08-10T19:06:45.335Z,30.20
2018-08-10T19:09:14.188Z,30.10
2018-08-10T19:11:43.479Z,30.20
2018-08-10T19:14:15.667Z,30.10
2018-08-10T19:17:24.327Z,30.10
2018-08-10T19:19:53.171Z,30.10
2018-08-10T19:22:22.796Z,30.10
2018-08-10T19:24:52.026Z,30.00
2018-08-10T19:27:20.986Z,30.00
2018-08-10T19:29:52.189Z,30.00
2018-08-10T19:32:21.147Z,29.90
2018-08-10T19:34:52.260Z,29.80
2018-08-10T19:37:21.044Z,29.70
2018-08-10T19:39:52.017Z,29.70
2018-08-10T19:42:21.349Z,29.60
2018-08-10T19:44:52.128Z,29.60
2018-08-10T19:47:21.187Z,29.60
2018-08-10T19:49:51.832Z,29.60
2018-08-10T19:52:21.023Z,29.60
2018-08-10T19:54:51.885Z,29.60
2018-08-10T19:57:21.054Z,29.50
2018-08-10T19:59:52.095Z,29.50
2018-08-10T20:02:22.114Z,29.50
2018-08-10T20:04:52.731Z,29.50
2018-08-10T20:07:21.876Z,29.40
2018-08-10T20:09:52.554Z,29.40
2018-08-10T20:12:21.682Z,29.30
2018-08-10T20:15:29.204Z,29.20
2018-08-10T20:17:59.471Z,29.20
2018-08-10T20:20:28.964Z,29.20
2018-08-10T20:22:58.304Z,29.10
2018-08-10T20:25:43.553Z,29.10
2018-08-10T20:28:33.056Z,29.10
2018-08-10T20:31:01.966Z,29.10
2018-08-10T20:33:30.721Z,29.00
2018-08-10T20:35:59.912Z,29.00
2018-08-10T20:38:28.554Z,29.00
2018-08-10T20:40:57.960Z,29.00
2018-08-10T20:43:26.575Z,29.00
2018-08-10T20:45:55.247Z,29.00
2018-08-10T20:48:24.043Z,28.90
2018-08-10T20:50:52.996Z,28.90
2018-08-10T20:53:21.500Z,28.90
2018-08-10T20:55:50.466Z,28.80
2018-08-10T20:58:19.280Z,28.80
2018-08-10T21:00:48.179Z,28.70
2018-08-10T21:03:16.968Z,28.70
2018-08-10T21:05:45.368Z,28.70
2018-08-10T21:08:13.806Z,28.60
2018-08-10T21:10:42.545Z,28.60
2018-08-10T21:13:11.309Z,28.50
2018-08-10T21:18:58.294Z,28.50
2018-08-10T21:21:27.158Z,28.50
2018-08-10T21:23:56.258Z,28.50
2018-08-10T21:26:25.150Z,28.50
2018-08-10T21:28:53.924Z,28.40
2018-08-10T21:31:22.700Z,28.40
2018-08-10T21:33:51.178Z,28.40
2018-08-10T21:36:20.070Z,28.40
2018-08-10T21:38:48.586Z,28.40
2018-08-10T21:41:17.387Z,28.30
2018-08-10T21:43:46.108Z,28.30
2018-08-10T21:46:14.724Z,28.30
2018-08-10T21:48:43.095Z,28.20
2018-08-10T21:51:11.812Z,28.20
2018-08-10T21:53:40.301Z,28.20
2018-08-10T21:56:08.982Z,28.20
2018-08-10T21:58:37.487Z,28.10
2018-08-10T22:01:06.024Z,28.20
2018-08-10T22:03:34.587Z,28.10
2018-08-10T22:06:03.299Z,28.10
2018-08-10T22:08:31.652Z,28.10
2018-08-10T22:11:00.217Z,28.10
2018-08-10T22:13:34.024Z,28.00
2018-08-10T22:16:08.184Z,28.00
2018-08-10T22:18:42.215Z,28.00
2018-08-10T22:21:10.924Z,28.00
2018-08-10T22:23:39.428Z,27.90
2018-08-10T22:26:08.212Z,27.90
2018-08-10T22:28:37.095Z,27.90
2018-08-10T22:31:05.642Z,27.90
2018-08-10T22:33:34.420Z,27.80
2018-08-10T22:36:03.023Z,27.80
2018-08-10T22:38:31.476Z,27.80
2018-08-10T22:41:00.011Z,27.70
2018-08-10T22:43:28.932Z,27.70
2018-08-10T22:45:57.904Z,27.70
2018-08-10T22:48:26.322Z,27.70
2018-08-10T22:50:54.731Z,27.60
2018-08-10T22:53:23.145Z,27.60
2018-08-10T22:55:51.633Z,27.60
2018-08-10T22:58:19.983Z,27.60
2018-08-10T23:00:49.012Z,27.60
2018-08-10T23:03:17.515Z,27.60
2018-08-10T23:05:46.442Z,27.50
2018-08-10T23:08:15.042Z,27.60
2018-08-10T23:10:43.491Z,27.50
2018-08-10T23:13:12.048Z,27.50
2018-08-10T23:15:40.535Z,27.50
2018-08-10T23:18:08.919Z,27.50
2018-08-10T23:20:37.288Z,27.50
2018-08-10T23:23:05.807Z,27.50
2018-08-10T23:25:34.210Z,27.50
2018-08-10T23:28:02.728Z,27.50
2018-08-10T23:30:31.049Z,27.50
2018-08-10T23:33:00.043Z,27.40
2018-08-10T23:35:28.630Z,27.40
2018-08-10T23:37:57.128Z,27.40
2018-08-10T23:40:26.268Z,27.40
2018-08-10T23:42:55.175Z,27.40
2018-08-10T23:45:23.766Z,27.40
2018-08-10T23:47:52.737Z,27.40
2018-08-10T23:50:21.722Z,27.40
2018-08-10T23:52:50.173Z,27.40
2018-08-10T23:55:19.350Z,27.50
2018-08-10T23:57:48.083Z,27.40
